Time,TemperatureF,DewpointF,PressureIn,WindDirection,WindDirectionDegrees,WindSpeedMPH,WindSpeedGustMPH,Humidity,HourlyPrecipIn,Conditions,Clouds,dailyrainin,SoftwareType,DateUTC
2013-02-12 00:03:00,28.8,24.0,30.12,West,269,4.0,10.0,83,0.00,,,0.00,weatherlink.com 1.10,2013-02-12 06:03:00,
2013-02-12 00:18:00,28.7,24.0,30.11,WNW,287,7.0,10.0,83,0.00,,,0.00,weatherlink.com 1.10,2013-02-12 06:18:00,
2013-02-12 00:33:00,28.7,24.0,30.12,WNW,301,4.0,12.0,82,0.00,,,0.00,weatherlink.com 1.10,2013-02-12 06:33:00,
2013-02-12 00:48:00,28.6,24.0,30.12,WNW,294,6.0,13.0,82,0.00,,,0.00,weatherlink.com 1.10,2013-02-12 06:48:00,
2013-02-12 01:03:00,28.5,24.0,30.12,West,277,3.0,10.0,82,0.00,,,0.00,weatherlink.com 1.10,2013-02-12 07:03:00,
2013-02-12 01:18:00,28.0,24.0,30.12,West,274,2.0,6.0,85,0.00,,,0.00,weatherlink.com 1.10,2013-02-12 07:18:00,
2013-02-12 01:33:00,27.4,24.0,30.12,West,264,2.0,8.0,87,0.00,,,0.00,weatherlink.com 1.10,2013-02-12 07:33:00,
2013-02-12 01:49:00,27.2,24.0,30.13,West,265,3.0,6.0,88,0.00,,,0.00,weatherlink.com 1.10,2013-02-12 07:49:00,
2013-02-12 02:04:00,26.8,24.0,30.13,West,259,2.0,6.0,88,0.00,,,0.00,weatherlink.com 1.10,2013-02-12 08:04:00,
2013-02-12 02:19:00,26.5,24.0,30.13,WSW,258,1.0,5.0,89,0.00,,,0.00,weatherlink.com 1.10,2013-02-12 08:19:00,
2013-02-12 02:34:00,26.5,24.0,30.13,West,263,2.0,7.0,89,0.00,,,0.00,weatherlink.com 1.10,2013-02-12 08:34:00,
2013-02-12 02:49:00,26.5,24.0,30.13,WSW,256,1.0,7.0,89,0.00,,,0.00,weatherlink.com 1.10,2013-02-12 08:49:00,
2013-02-12 03:04:00,26.2,23.0,30.13,West,279,2.0,6.0,89,0.00,,,0.00,weatherlink.com 1.10,2013-02-12 09:04:00,
2013-02-12 03:19:00,25.9,23.0,30.13,West,277,4.0,6.0,89,0.00,,,0.00,weatherlink.com 1.10,2013-02-12 09:19:00,
2013-02-12 03:34:00,25.7,23.0,30.12,West,278,2.0,5.0,90,0.00,,,0.00,weatherlink.com 1.10,2013-02-12 09:34:00,
2013-02-12 03:49:00,25.5,23.0,30.13,West,278,1.0,5.0,90,0.00,,,0.00,weatherlink.com 1.10,2013-02-12 09:49:00,
2013-02-12 04:04:00,25.2,23.0,30.13,West,277,2.0,5.0,90,0.00,,,0.00,weatherlink.com 1.10,2013-02-12 10:04:00,
2013-02-12 04:19:00,24.9,23.0,30.13,West,277,0.0,4.0,91,0.00,,,0.00,weatherlink.com 1.10,2013-02-12 10:19:00,
2013-02-12 04:34:00,24.8,23.0,30.13,West,277,2.0,4.0,91,0.00,,,0.00,weatherlink.com 1.10,2013-02-12 10:34:00,
2013-02-12 04:49:00,24.5,22.0,30.14,West,277,1.0,3.0,91,0.00,,,0.00,weatherlink.com 1.10,2013-02-12 10:49:00,
2013-02-12 05:04:00,24.5,23.0,30.14,West,277,2.0,7.0,92,0.00,,,0.00,weatherlink.com 1.10,2013-02-12 11:04:00,
2013-02-12 05:19:00,24.7,23.0,30.14,West,277,2.0,5.0,92,0.00,,,0.00,weatherlink.com 1.10,2013-02-12 11:19:00,
2013-02-12 05:34:00,25.1,23.0,30.14,West,277,0.0,4.0,92,0.00,,,0.00,weatherlink.com 1.10,2013-02-12 11:34:00,
2013-02-12 05:49:00,25.4,23.0,30.13,West,280,2.0,5.0,91,0.00,,,0.00,weatherlink.com 1.10,2013-02-12 11:49:00,
2013-02-12 06:04:00,25.6,23.0,30.13,West,280,4.0,5.0,91,0.00,,,0.00,weatherlink.com 1.10,2013-02-12 12:04:00,
2013-02-12 06:19:00,25.9,24.0,30.13,WNW,298,4.0,6.0,91,0.00,,,0.00,weatherlink.com 1.10,2013-02-12 12:19:00,
2013-02-12 06:34:00,26.3,24.0,30.13,WNW,300,2.0,7.0,90,0.00,,,0.00,weatherlink.com 1.10,2013-02-12 12:34:00,
2013-02-12 06:49:00,26.5,24.0,30.14,WNW,298,3.0,8.0,89,0.00,,,0.00,weatherlink.com 1.10,2013-02-12 12:49:00,
2013-02-12 07:04:00,26.6,24.0,30.15,NNW,333,3.0,9.0,89,0.00,,,0.00,weatherlink.com 1.10,2013-02-12 13:04:00,
2013-02-12 07:19:00,26.7,24.0,30.14,West,275,3.0,9.0,88,0.00,,,0.00,weatherlink.com 1.10,2013-02-12 13:19:00,
2013-02-12 07:34:00,26.8,24.0,30.14,WNW,294,2.0,7.0,88,0.00,,,0.00,weatherlink.com 1.10,2013-02-12 13:34:00,
2013-02-12 07:49:00,27.1,24.0,30.14,WNW,284,2.0,7.0,88,0.00,,,0.00,weatherlink.com 1.10,2013-02-12 13:49:00,
2013-02-12 08:04:00,27.0,24.0,30.14,NW,309,5.0,11.0,88,0.00,,,0.00,weatherlink.com 1.10,2013-02-12 14:04:00,
2013-02-12 08:19:00,27.1,24.0,30.15,WNW,301,6.0,10.0,87,0.00,,,0.00,weatherlink.com 1.10,2013-02-12 14:19:00,
2013-02-12 08:34:00,27.3,24.0,30.15,WNW,301,1.0,9.0,88,0.00,,,0.00,weatherlink.com 1.10,2013-02-12 14:34:00,
2013-02-12 08:49:00,27.4,24.0,30.15,NW,308,3.0,7.0,88,0.00,,,0.00,weatherlink.com 1.10,2013-02-12 14:49:00,
2013-02-12 09:04:00,27.5,24.0,30.14,NW,306,3.0,9.0,88,0.00,,,0.00,weatherlink.com 1.10,2013-02-12 15:04:00,
2013-02-12 09:19:00,27.6,25.0,30.15,WSW,251,7.0,10.0,88,0.00,,,0.00,weatherlink.com 1.10,2013-02-12 15:19:00,
2013-02-12 09:34:00,28.2,25.0,30.15,WNW,294,4.0,7.0,88,0.00,,,0.00,weatherlink.com 1.10,2013-02-12 15:34:00,
2013-02-12 09:49:00,28.1,25.0,30.17,West,261,5.0,10.0,86,0.00,,,0.00,weatherlink.com 1.10,2013-02-12 15:49:00,
2013-02-12 10:04:00,28.6,25.0,30.15,WNW,288,3.0,9.0,86,0.00,,,0.00,weatherlink.com 1.10,2013-02-12 16:04:00,
2013-02-12 10:19:00,28.7,25.0,30.15,NW,313,5.0,11.0,86,0.00,,,0.00,weatherlink.com 1.10,2013-02-12 16:19:00,
2013-02-12 10:34:00,28.7,25.0,30.14,NW,321,5.0,12.0,85,0.00,,,0.00,weatherlink.com 1.10,2013-02-12 16:34:00,
2013-02-12 10:49:00,28.7,25.0,30.12,WNW,292,0.0,10.0,84,0.00,,,0.00,weatherlink.com 1.10,2013-02-12 16:49:00,
2013-02-12 11:04:00,28.9,24.0,30.12,NW,310,5.0,9.0,83,0.00,,,0.00,weatherlink.com 1.10,2013-02-12 17:04:00,
2013-02-12 11:19:00,29.8,25.0,30.11,NW,309,3.0,7.0,83,0.00,,,0.00,weatherlink.com 1.10,2013-02-12 17:19:00,
2013-02-12 11:34:00,29.8,25.0,30.11,NNW,335,4.0,8.0,82,0.00,,,0.00,weatherlink.com 1.10,2013-02-12 17:34:00,
2013-02-12 11:49:00,29.7,25.0,30.10,NNW,348,4.0,8.0,83,0.00,,,0.00,weatherlink.com 1.10,2013-02-12 17:49:00,
2013-02-12 12:04:00,30.2,25.0,30.10,WNW,283,4.0,7.0,81,0.00,,,0.00,weatherlink.com 1.10,2013-02-12 18:04:00,
2013-02-12 12:34:00,31.0,26.0,30.09,West,269,5.0,10.0,80,0.00,,,0.00,weatherlink.com 1.10,2013-02-12 18:34:00,
2013-02-12 12:49:00,31.7,26.0,30.08,NW,317,2.0,6.0,79,0.00,,,0.00,weatherlink.com 1.10,2013-02-12 18:49:00,
2013-02-12 13:04:00,31.8,26.0,30.08,NNW,347,3.0,7.0,79,0.00,,,0.00,weatherlink.com 1.10,2013-02-12 19:04:00,
2013-02-12 13:19:00,32.8,26.0,30.08,WSW,246,8.0,13.0,76,0.00,,,0.00,weatherlink.com 1.10,2013-02-12 19:19:00,
2013-02-12 13:34:00,32.9,25.0,30.09,WSW,254,9.0,12.0,74,0.00,,,0.00,weatherlink.com 1.10,2013-02-12 19:34:00,
2013-02-12 13:49:00,32.5,26.0,30.09,WNW,294,5.0,13.0,77,0.00,,,0.00,weatherlink.com 1.10,2013-02-12 19:49:00,
2013-02-12 14:04:00,34.3,27.0,30.09,WSW,251,5.0,10.0,74,0.00,,,0.00,weatherlink.com 1.10,2013-02-12 20:04:00,
2013-02-12 14:19:00,34.5,27.0,30.08,SSW,212,6.0,11.0,74,0.00,,,0.00,weatherlink.com 1.10,2013-02-12 20:19:00,
2013-02-12 14:34:00,34.8,27.0,30.07,SW,234,4.0,9.0,72,0.00,,,0.00,weatherlink.com 1.10,2013-02-12 20:34:00,
2013-02-12 14:49:00,35.0,27.0,30.08,SW,227,11.0,14.0,73,0.00,,,0.00,weatherlink.com 1.10,2013-02-12 20:49:00,
2013-02-12 15:04:00,34.2,27.0,30.08,WSW,246,1.0,11.0,75,0.00,,,0.00,weatherlink.com 1.10,2013-02-12 21:04:00,
2013-02-12 15:19:00,34.9,28.0,30.07,WSW,244,1.0,5.0,75,0.00,,,0.00,weatherlink.com 1.10,2013-02-12 21:19:00,
2013-02-12 15:34:00,34.8,27.0,30.06,West,259,7.0,10.0,73,0.00,,,0.00,weatherlink.com 1.10,2013-02-12 21:34:00,
2013-02-12 15:49:00,34.6,28.0,30.05,SW,236,5.0,10.0,76,0.00,,,0.00,weatherlink.com 1.10,2013-02-12 21:49:00,
2013-02-12 16:04:00,34.7,28.0,30.04,SW,223,4.0,8.0,77,0.00,,,0.00,weatherlink.com 1.10,2013-02-12 22:04:00,
2013-02-12 16:20:00,34.6,28.0,30.03,WSW,240,5.0,8.0,76,0.00,,,0.00,weatherlink.com 1.10,2013-02-12 22:20:00,
2013-02-12 16:35:00,34.1,28.0,30.03,SW,229,5.0,7.0,78,0.00,,,0.00,weatherlink.com 1.10,2013-02-12 22:35:00,
2013-02-12 16:50:00,33.7,28.0,30.03,SW,231,2.0,5.0,78,0.00,,,0.00,weatherlink.com 1.10,2013-02-12 22:50:00,
2013-02-12 17:05:00,33.0,28.0,30.03,SW,227,3.0,4.0,82,0.00,,,0.00,weatherlink.com 1.10,2013-02-12 23:05:00,
2013-02-12 17:20:00,32.4,28.0,30.03,SW,225,1.0,3.0,84,0.00,,,0.00,weatherlink.com 1.10,2013-02-12 23:20:00,
2013-02-12 17:35:00,32.0,28.0,30.03,SW,225,2.0,3.0,85,0.00,,,0.00,weatherlink.com 1.10,2013-02-12 23:35:00,
2013-02-12 18:05:00,31.3,28.0,30.02,SW,225,0.0,2.0,86,0.00,,,0.00,weatherlink.com 1.10,2013-02-13 00:05:00,
2013-02-12 18:20:00,31.5,28.0,30.01,SW,225,2.0,3.0,87,0.00,,,0.00,weatherlink.com 1.10,2013-02-13 00:20:00,
2013-02-12 18:35:00,31.4,28.0,30.01,SW,224,1.0,2.0,87,0.00,,,0.00,weatherlink.com 1.10,2013-02-13 00:35:00,
2013-02-12 18:50:00,30.9,28.0,30.01,SW,224,2.0,4.0,88,0.00,,,0.00,weatherlink.com 1.10,2013-02-13 00:50:00,
2013-02-12 19:05:00,30.8,28.0,30.01,SW,224,2.0,3.0,88,0.00,,,0.00,weatherlink.com 1.10,2013-02-13 01:05:00,
2013-02-12 19:35:00,30.4,28.0,30.00,SW,224,1.0,2.0,90,0.00,,,0.00,weatherlink.com 1.10,2013-02-13 01:35:00,
2013-02-12 19:50:00,30.1,28.0,30.00,SW,224,1.0,3.0,90,0.00,,,0.00,weatherlink.com 1.10,2013-02-13 01:50:00,
2013-02-12 20:05:00,29.7,27.0,30.00,SW,224,2.0,3.0,90,0.00,,,0.00,weatherlink.com 1.10,2013-02-13 02:05:00,
2013-02-12 20:20:00,29.4,27.0,29.99,SW,224,3.0,3.0,91,0.00,,,0.00,weatherlink.com 1.10,2013-02-13 02:20:00,
2013-02-12 20:35:00,29.1,27.0,29.99,SW,224,2.0,5.0,92,0.00,,,0.00,weatherlink.com 1.10,2013-02-13 02:35:00,
2013-02-12 20:50:00,29.0,27.0,29.99,SW,224,2.0,4.0,91,0.00,,,0.00,weatherlink.com 1.10,2013-02-13 02:50:00,
2013-02-12 21:05:00,29.0,27.0,29.99,SW,224,1.0,5.0,91,0.00,,,0.00,weatherlink.com 1.10,2013-02-13 03:05:00,
2013-02-12 21:35:00,28.8,27.0,29.98,SW,224,1.0,3.0,92,0.00,,,0.00,weatherlink.com 1.10,2013-02-13 03:35:00,
2013-02-12 21:50:00,28.7,27.0,29.97,SW,224,2.0,4.0,92,0.00,,,0.00,weatherlink.com 1.10,2013-02-13 03:50:00,
2013-02-12 22:05:00,28.7,27.0,29.98,SW,224,2.0,3.0,92,0.00,,,0.00,weatherlink.com 1.10,2013-02-13 04:05:00,
2013-02-12 22:20:00,28.5,27.0,29.98,SW,224,1.0,3.0,92,0.00,,,0.00,weatherlink.com 1.10,2013-02-13 04:20:00,
2013-02-12 22:35:00,28.5,27.0,29.98,SW,224,1.0,3.0,92,0.00,,,0.00,weatherlink.com 1.10,2013-02-13 04:35:00,
2013-02-12 22:50:00,28.7,27.0,29.97,SW,224,1.0,3.0,92,0.00,,,0.00,weatherlink.com 1.10,2013-02-13 04:50:00,
2013-02-12 23:05:00,28.6,27.0,29.97,SW,224,1.0,2.0,92,0.00,,,0.00,weatherlink.com 1.10,2013-02-13 05:05:00,
2013-02-12 23:20:00,28.4,26.0,29.97,SW,224,0.0,2.0,92,0.00,,,0.00,weatherlink.com 1.10,2013-02-13 05:20:00,
2013-02-12 23:35:00,26.9,25.0,29.96,SW,224,1.0,3.0,91,0.00,,,0.00,weatherlink.com 1.10,2013-02-13 05:35:00,
2013-02-12 23:50:00,26.9,25.0,29.96,SW,224,2.0,3.0,93,0.00,,,0.00,weatherlink.com 1.10,2013-02-13 05:50:00,